AAL1751 KDFW-KMIA
Flight info
| Callsign | AAL1751 |
|---|---|
| Flight time | N/A |
| Altitude | 35000 |
| Route | MRSSH3 ZALEA HRV Q105 BLVNS Y290 DOWRY FROGZ5 |
| Aircraft | A21N/M-SDE2E3FGHIJ1RWXY/LB1 |
Departure
| Time | 2026-05-01 14:46 |
|---|---|
| Airport | Dallas Fort Worth International Airport (KDFW) |
Arrival
| Time | N/A |
|---|---|
| Airport | Miami International Airport (KMIA) |
| Time | Latitude | Longitude | Altitude | Speed | Heading |
|---|---|---|---|---|---|
| 2026-05-01 14:19 | 32.90459 | -97.03497 | 590 ft | 0 kts | 275° |
| 2026-05-01 14:35 | 32.90457 | -97.03480 | 590 ft | 4 kts | 275° |
| 2026-05-01 14:35 | 32.90455 | -97.03455 | 590 ft | 4 kts | 275° |
| 2026-05-01 14:35 | 32.90456 | -97.03424 | 590 ft | 4 kts | 245° |
| 2026-05-01 14:36 | 32.90467 | -97.03402 | 589 ft | 4 kts | 235° |
| 2026-05-01 14:36 | 32.90475 | -97.03389 | 589 ft | 0 kts | 235° |
| 2026-05-01 14:38 | 32.90473 | -97.03391 | 589 ft | 1 kts | 229° |
| 2026-05-01 14:38 | 32.90466 | -97.03396 | 589 ft | 1 kts | 202° |
| 2026-05-01 14:39 | 32.90452 | -97.03391 | 589 ft | 3 kts | 151° |
| 2026-05-01 14:39 | 32.90417 | -97.03368 | 589 ft | 7 kts | 148° |
| 2026-05-01 14:39 | 32.90367 | -97.03322 | 588 ft | 11 kts | 142° |
| 2026-05-01 14:39 | 32.90323 | -97.03218 | 579 ft | 19 kts | 127° |
| 2026-05-01 14:40 | 32.90213 | -97.03191 | 577 ft | 16 kts | 182° |
| 2026-05-01 14:40 | 32.90105 | -97.03192 | 580 ft | 15 kts | 180° |
| 2026-05-01 14:40 | 32.89999 | -97.03193 | 582 ft | 16 kts | 180° |
| 2026-05-01 14:40 | 32.89880 | -97.03194 | 583 ft | 18 kts | 180° |
| 2026-05-01 14:41 | 32.89749 | -97.03194 | 582 ft | 19 kts | 180° |
| 2026-05-01 14:41 | 32.89617 | -97.03195 | 583 ft | 19 kts | 180° |
| 2026-05-01 14:41 | 32.89478 | -97.03195 | 581 ft | 21 kts | 180° |
| 2026-05-01 14:41 | 32.89329 | -97.03197 | 581 ft | 22 kts | 180° |
| 2026-05-01 14:42 | 32.89183 | -97.03197 | 578 ft | 21 kts | 180° |
| 2026-05-01 14:42 | 32.89031 | -97.03197 | 578 ft | 23 kts | 180° |
| 2026-05-01 14:42 | 32.88873 | -97.03199 | 577 ft | 22 kts | 180° |
| 2026-05-01 14:42 | 32.88723 | -97.03200 | 577 ft | 21 kts | 180° |
| 2026-05-01 14:43 | 32.88575 | -97.03200 | 576 ft | 21 kts | 180° |
| 2026-05-01 14:43 | 32.88433 | -97.03200 | 578 ft | 19 kts | 179° |
| 2026-05-01 14:43 | 32.88308 | -97.03200 | 582 ft | 18 kts | 180° |
| 2026-05-01 14:43 | 32.88184 | -97.03202 | 580 ft | 18 kts | 181° |
| 2026-05-01 14:44 | 32.88057 | -97.03202 | 580 ft | 17 kts | 179° |
| 2026-05-01 14:44 | 32.87903 | -97.03096 | 580 ft | 15 kts | 89° |
| 2026-05-01 14:44 | 32.87927 | -97.03005 | 578 ft | 6 kts | 24° |
| 2026-05-01 14:45 | 32.87959 | -97.03005 | 577 ft | 6 kts | 358° |
| 2026-05-01 14:45 | 32.88770 | -97.03004 | 573 ft | 114 kts | 1° |
| 2026-05-01 14:45 | 32.89750 | -97.02993 | 592 ft | 162 kts | 3° |
| 2026-05-01 14:46 | 32.90920 | -97.02995 | 929 ft | 173 kts | 6° |
| 2026-05-01 14:46 | 32.93218 | -97.02626 | 2260 ft | 153 kts | 20° |
| 2026-05-01 14:46 | 32.94298 | -97.02292 | 2651 ft | 172 kts | 22° |
| 2026-05-01 14:47 | 32.95528 | -97.01877 | 2965 ft | 196 kts | 22° |
| 2026-05-01 14:47 | 32.96922 | -97.01407 | 3234 ft | 223 kts | 21° |
| 2026-05-01 14:47 | 32.98496 | -97.00883 | 3666 ft | 241 kts | 21° |
| 2026-05-01 14:48 | 33.01191 | -96.98709 | 5271 ft | 239 kts | 61° |
| 2026-05-01 14:48 | 33.01722 | -96.96832 | 6053 ft | 244 kts | 84° |
| 2026-05-01 14:48 | 33.01493 | -96.92680 | 7458 ft | 260 kts | 95° |
| 2026-05-01 14:49 | 33.01096 | -96.88272 | 8788 ft | 274 kts | 96° |
| 2026-05-01 14:49 | 32.99658 | -96.83943 | 10094 ft | 294 kts | 123° |
| 2026-05-01 14:50 | 32.98030 | -96.81168 | 10557 ft | 319 kts | 125° |
| 2026-05-01 14:50 | 32.94314 | -96.74947 | 11255 ft | 369 kts | 126° |
| 2026-05-01 14:51 | 32.92817 | -96.72417 | 11771 ft | 378 kts | 126° |
| 2026-05-01 14:51 | 32.89722 | -96.67182 | 12847 ft | 395 kts | 127° |
| 2026-05-01 14:52 | 32.86501 | -96.61732 | 13891 ft | 409 kts | 129° |
| 2026-05-01 14:52 | 32.84851 | -96.58941 | 14374 ft | 415 kts | 129° |
| 2026-05-01 14:52 | 32.81506 | -96.53288 | 15468 ft | 421 kts | 129° |
| 2026-05-01 14:53 | 32.79816 | -96.50436 | 15994 ft | 424 kts | 129° |
| 2026-05-01 14:53 | 32.78111 | -96.47559 | 16501 ft | 427 kts | 129° |
| 2026-05-01 14:53 | 32.76387 | -96.44656 | 16915 ft | 433 kts | 129° |
| 2026-05-01 14:53 | 32.74639 | -96.41714 | 17341 ft | 438 kts | 130° |
| 2026-05-01 14:54 | 32.72875 | -96.38745 | 17786 ft | 441 kts | 130° |
| 2026-05-01 14:54 | 32.71187 | -96.35662 | 18132 ft | 451 kts | 123° |
| 2026-05-01 14:54 | 32.69938 | -96.32197 | 18486 ft | 463 kts | 110° |
| 2026-05-01 14:54 | 32.69326 | -96.28426 | 18883 ft | 469 kts | 99° |
| 2026-05-01 14:55 | 32.69036 | -96.24610 | 19283 ft | 472 kts | 97° |
| 2026-05-01 14:55 | 32.68794 | -96.20665 | 19675 ft | 474 kts | 97° |
| 2026-05-01 14:55 | 32.68557 | -96.16799 | 20036 ft | 477 kts | 97° |
| 2026-05-01 14:55 | 32.68304 | -96.12813 | 20412 ft | 480 kts | 98° |
| 2026-05-01 14:56 | 32.68046 | -96.08851 | 20797 ft | 483 kts | 98° |
| 2026-05-01 14:56 | 32.67784 | -96.04916 | 21147 ft | 486 kts | 98° |
| 2026-05-01 14:56 | 32.67515 | -96.00912 | 21504 ft | 489 kts | 99° |
| 2026-05-01 14:56 | 32.67242 | -95.96876 | 21895 ft | 491 kts | 99° |
| 2026-05-01 14:57 | 32.66966 | -95.92832 | 22263 ft | 493 kts | 99° |
| 2026-05-01 14:57 | 32.66405 | -95.84672 | 22979 ft | 498 kts | 100° |
| 2026-05-01 14:57 | 32.66120 | -95.80563 | 23318 ft | 501 kts | 100° |
| 2026-05-01 14:58 | 32.65832 | -95.76427 | 23652 ft | 503 kts | 101° |
| 2026-05-01 14:58 | 32.65543 | -95.72288 | 23943 ft | 505 kts | 101° |
| 2026-05-01 14:58 | 32.65249 | -95.68123 | 24145 ft | 509 kts | 101° |
| 2026-05-01 14:58 | 32.64951 | -95.63924 | 24332 ft | 513 kts | 101° |
| 2026-05-01 14:59 | 32.64652 | -95.59695 | 24669 ft | 513 kts | 101° |
| 2026-05-01 14:59 | 32.64352 | -95.55473 | 24991 ft | 513 kts | 101° |
| 2026-05-01 14:59 | 32.64050 | -95.51252 | 25287 ft | 514 kts | 101° |
| 2026-05-01 14:59 | 32.63747 | -95.47027 | 25578 ft | 515 kts | 101° |
| 2026-05-01 15:00 | 32.63132 | -95.38546 | 26139 ft | 516 kts | 101° |
| 2026-05-01 15:00 | 32.62822 | -95.34300 | 26387 ft | 517 kts | 102° |
| 2026-05-01 15:00 | 32.62507 | -95.30040 | 26543 ft | 522 kts | 101° |
| 2026-05-01 15:01 | 32.62188 | -95.25730 | 26652 ft | 526 kts | 101° |
| 2026-05-01 15:01 | 32.61868 | -95.21400 | 26912 ft | 526 kts | 101° |
| 2026-05-01 15:01 | 32.61552 | -95.17134 | 27188 ft | 527 kts | 101° |
| 2026-05-01 15:01 | 32.61225 | -95.12753 | 27443 ft | 527 kts | 101° |
| 2026-05-01 15:02 | 32.60899 | -95.08412 | 27681 ft | 528 kts | 101° |
| 2026-05-01 15:02 | 32.60793 | -95.07005 | 27755 ft | 528 kts | 101° |
| 2026-05-01 15:02 | 32.60246 | -94.99755 | 28325 ft | 525 kts | 102° |
| 2026-05-01 15:02 | 32.59920 | -94.95454 | 28676 ft | 523 kts | 102° |
| 2026-05-01 15:03 | 32.59590 | -94.91157 | 28913 ft | 524 kts | 102° |
| 2026-05-01 15:03 | 32.59258 | -94.86852 | 29126 ft | 525 kts | 102° |
| 2026-05-01 15:03 | 32.58926 | -94.82541 | 29452 ft | 524 kts | 102° |
| 2026-05-01 15:03 | 32.58497 | -94.78276 | 29787 ft | 516 kts | 108° |
| 2026-05-01 15:04 | 32.57620 | -94.74196 | 30128 ft | 506 kts | 116° |
| 2026-05-01 15:04 | 32.56558 | -94.70298 | 30414 ft | 502 kts | 117° |
| 2026-05-01 15:04 | 32.55449 | -94.66388 | 30713 ft | 499 kts | 117° |
| 2026-05-01 15:04 | 32.54328 | -94.62450 | 31031 ft | 497 kts | 117° |
| 2026-05-01 15:05 | 32.53227 | -94.58579 | 31334 ft | 493 kts | 117° |
| 2026-05-01 15:05 | 32.52169 | -94.54838 | 32054 ft | 479 kts | 117° |
| 2026-05-01 15:05 | 32.51120 | -94.51126 | 32617 ft | 472 kts | 117° |
| 2026-05-01 15:05 | 32.50069 | -94.47434 | 32848 ft | 473 kts | 117° |
| 2026-05-01 15:06 | 32.49017 | -94.43745 | 33005 ft | 474 kts | 117° |
| 2026-05-01 15:06 | 32.47963 | -94.40051 | 33213 ft | 474 kts | 117° |
| 2026-05-01 15:06 | 32.46910 | -94.36353 | 33448 ft | 474 kts | 117° |
| 2026-05-01 15:06 | 32.45858 | -94.32663 | 33679 ft | 473 kts | 117° |
| 2026-05-01 15:07 | 32.44807 | -94.28979 | 33929 ft | 472 kts | 118° |
| 2026-05-01 15:07 | 32.43757 | -94.25306 | 34146 ft | 471 kts | 118° |
| 2026-05-01 15:07 | 32.42705 | -94.21630 | 34308 ft | 471 kts | 118° |
| 2026-05-01 15:07 | 32.41653 | -94.17958 | 34414 ft | 473 kts | 118° |
| 2026-05-01 15:08 | 32.40934 | -94.15458 | 34400 ft | 476 kts | 117° |
| 2026-05-01 15:08 | 32.39866 | -94.11743 | 34504 ft | 478 kts | 117° |
| 2026-05-01 15:08 | 32.38797 | -94.08019 | 34684 ft | 477 kts | 117° |
| 2026-05-01 15:08 | 32.37731 | -94.04309 | 34837 ft | 477 kts | 117° |
| 2026-05-01 15:09 | 32.36661 | -94.00594 | 34969 ft | 477 kts | 118° |
| 2026-05-01 15:09 | 32.35587 | -93.96872 | 35072 ft | 478 kts | 118° |
| 2026-05-01 15:09 | 32.34513 | -93.93152 | 35086 ft | 478 kts | 118° |
| 2026-05-01 15:10 | 32.32361 | -93.85715 | 35106 ft | 478 kts | 118° |
| 2026-05-01 15:10 | 32.29137 | -93.74611 | 35076 ft | 480 kts | 117° |
| 2026-05-01 15:11 | 32.25861 | -93.63370 | 35106 ft | 483 kts | 117° |
| 2026-05-01 15:12 | 32.23670 | -93.55869 | 35096 ft | 483 kts | 117° |
| 2026-05-01 15:12 | 32.19661 | -93.45194 | 35105 ft | 463 kts | 133° |
| 2026-05-01 15:14 | 32.09945 | -93.30214 | 35108 ft | 459 kts | 137° |
| 2026-05-01 15:14 | 32.04064 | -93.21295 | 35097 ft | 459 kts | 136° |
| 2026-05-01 15:15 | 32.00708 | -93.14784 | 35096 ft | 483 kts | 116° |
| 2026-05-01 15:15 | 31.99043 | -93.06959 | 35089 ft | 501 kts | 104° |
| 2026-05-01 15:16 | 31.97648 | -92.90516 | 35094 ft | 506 kts | 100° |
| 2026-05-01 15:18 | 31.96030 | -92.69940 | 35098 ft | 505 kts | 102° |
| 2026-05-01 15:19 | 31.93846 | -92.53637 | 35099 ft | 507 kts | 101° |
| 2026-05-01 15:19 | 31.93794 | -92.45292 | 35101 ft | 513 kts | 90° |
| 2026-05-01 15:19 | 31.93998 | -92.41097 | 35102 ft | 513 kts | 90° |
| 2026-05-01 15:20 | 31.94655 | -92.28513 | 35099 ft | 514 kts | 90° |
| 2026-05-01 15:21 | 31.95106 | -92.20119 | 35103 ft | 513 kts | 90° |
| 2026-05-01 15:21 | 31.95565 | -92.11738 | 35100 ft | 513 kts | 90° |
| 2026-05-01 15:22 | 31.96265 | -91.99152 | 35099 ft | 513 kts | 90° |
| 2026-05-01 15:22 | 31.96740 | -91.90768 | 35097 ft | 513 kts | 90° |
| 2026-05-01 15:23 | 31.97245 | -91.82380 | 35096 ft | 514 kts | 89° |
| 2026-05-01 15:23 | 31.97765 | -91.73979 | 35096 ft | 514 kts | 89° |
| 2026-05-01 15:24 | 31.98291 | -91.65583 | 35096 ft | 514 kts | 89° |
| 2026-05-01 15:24 | 31.98822 | -91.57180 | 35097 ft | 514 kts | 89° |
| 2026-05-01 15:25 | 31.99361 | -91.48780 | 35094 ft | 516 kts | 89° |
| 2026-05-01 15:25 | 31.99914 | -91.40326 | 35094 ft | 519 kts | 89° |
| 2026-05-01 15:26 | 32.00470 | -91.31905 | 35094 ft | 519 kts | 89° |
| 2026-05-01 15:26 | 32.01035 | -91.23427 | 35094 ft | 519 kts | 89° |
| 2026-05-01 15:27 | 32.01606 | -91.14952 | 35089 ft | 519 kts | 89° |
| 2026-05-01 15:28 | 32.02424 | -91.02207 | 35084 ft | 521 kts | 89° |
| 2026-05-01 15:28 | 32.02968 | -90.93699 | 35082 ft | 521 kts | 89° |
| 2026-05-01 15:29 | 32.03794 | -90.80931 | 35079 ft | 521 kts | 89° |
| 2026-05-01 15:30 | 32.04870 | -90.63898 | 35070 ft | 521 kts | 89° |
| 2026-05-01 15:31 | 32.06488 | -90.38344 | 35067 ft | 521 kts | 89° |
| 2026-05-01 15:32 | 32.06071 | -90.21364 | 35045 ft | 518 kts | 98° |
| 2026-05-01 15:34 | 32.04534 | -89.95950 | 35048 ft | 519 kts | 98° |